sensor_id;sensor_type;location;lat;lon;timestamp;pressure;altitude;pressure_sealevel;temperature;humidity
22181;BME280;11256;50.830;12.834;2023-09-18T00:01:47;97326.63;;;23.51;45.35
22181;BME280;11256;50.830;12.834;2023-09-18T00:06:48;97330.53;;;23.46;45.53
22181;BME280;11256;50.830;12.834;2023-09-18T00:11:48;97336.00;;;23.43;45.75
22181;BME280;11256;50.830;12.834;2023-09-18T00:16:48;97332.69;;;23.34;45.68
22181;BME280;11256;50.830;12.834;2023-09-18T00:21:49;97333.38;;;23.27;45.97
22181;BME280;11256;50.830;12.834;2023-09-18T00:26:50;97326.06;;;23.16;45.91
22181;BME280;11256;50.830;12.834;2023-09-18T00:31:53;97321.16;;;23.06;45.90
22181;BME280;11256;50.830;12.834;2023-09-18T00:36:53;97311.56;;;23.00;46.01
22181;BME280;11256;50.830;12.834;2023-09-18T00:41:54;97308.38;;;22.98;46.44
22181;BME280;11256;50.830;12.834;2023-09-18T00:46:54;97307.47;;;22.90;46.40
22181;BME280;11256;50.830;12.834;2023-09-18T00:51:55;97304.94;;;22.82;46.39
22181;BME280;11256;50.830;12.834;2023-09-18T00:56:56;97292.88;;;22.71;46.31
22181;BME280;11256;50.830;12.834;2023-09-18T01:01:57;97274.59;;;22.63;46.63
22181;BME280;11256;50.830;12.834;2023-09-18T01:06:58;97256.63;;;22.50;47.19
22181;BME280;11256;50.830;12.834;2023-09-18T01:17:04;97253.69;;;22.43;47.44
22181;BME280;11256;50.830;12.834;2023-09-18T01:22:08;97251.97;;;22.35;47.23
22181;BME280;11256;50.830;12.834;2023-09-18T01:27:13;97246.31;;;22.28;47.51
22181;BME280;11256;50.830;12.834;2023-09-18T01:32:15;97243.78;;;22.19;47.42
22181;BME280;11256;50.830;12.834;2023-09-18T01:37:17;97232.53;;;22.09;48.07
22181;BME280;11256;50.830;12.834;2023-09-18T01:42:20;97233.28;;;22.06;47.61
22181;BME280;11256;50.830;12.834;2023-09-18T01:47:21;97236.34;;;22.01;47.93
22181;BME280;11256;50.830;12.834;2023-09-18T01:52:23;97232.56;;;21.90;47.82
22181;BME280;11256;50.830;12.834;2023-09-18T01:57:23;97224.94;;;21.83;47.77
22181;BME280;11256;50.830;12.834;2023-09-18T02:02:24;97239.75;;;21.75;47.51
22181;BME280;11256;50.830;12.834;2023-09-18T02:07:24;97211.25;;;21.68;48.09
22181;BME280;11256;50.830;12.834;2023-09-18T02:12:25;97216.75;;;21.68;48.11
22181;BME280;11256;50.830;12.834;2023-09-18T02:17:25;97203.13;;;21.59;48.03
22181;BME280;11256;50.830;12.834;2023-09-18T02:22:25;97190.00;;;21.53;48.27
22181;BME280;11256;50.830;12.834;2023-09-18T02:27:26;97184.78;;;21.48;48.06
22181;BME280;11256;50.830;12.834;2023-09-18T02:32:27;97187.41;;;21.41;48.34
22181;BME280;11256;50.830;12.834;2023-09-18T02:37:27;97180.25;;;21.40;48.43
22181;BME280;11256;50.830;12.834;2023-09-18T02:42:29;97168.97;;;21.26;48.48
22181;BME280;11256;50.830;12.834;2023-09-18T02:47:29;97175.63;;;21.25;48.56
22181;BME280;11256;50.830;12.834;2023-09-18T02:52:30;97178.59;;;21.16;49.08
22181;BME280;11256;50.830;12.834;2023-09-18T02:57:31;97161.47;;;21.07;48.75
22181;BME280;11256;50.830;12.834;2023-09-18T03:02:31;97155.00;;;21.00;48.74
22181;BME280;11256;50.830;12.834;2023-09-18T03:07:31;97155.44;;;21.02;48.95
22181;BME280;11256;50.830;12.834;2023-09-18T03:12:32;97140.44;;;20.84;48.92
22181;BME280;11256;50.830;12.834;2023-09-18T03:17:33;97152.81;;;20.90;49.63
22181;BME280;11256;50.830;12.834;2023-09-18T03:22:34;97130.50;;;20.79;49.19
22181;BME280;11256;50.830;12.834;2023-09-18T03:27:35;97138.41;;;20.81;49.12
22181;BME280;11256;50.830;12.834;2023-09-18T03:32:36;97140.28;;;20.77;48.96
22181;BME280;11256;50.830;12.834;2023-09-18T03:37:36;97138.22;;;20.74;49.07
22181;BME280;11256;50.830;12.834;2023-09-18T03:42:37;97135.06;;;20.72;49.55
22181;BME280;11256;50.830;12.834;2023-09-18T03:47:39;97138.97;;;20.71;49.57
22181;BME280;11256;50.830;12.834;2023-09-18T03:52:40;97118.94;;;20.55;49.32
22181;BME280;11256;50.830;12.834;2023-09-18T03:57:42;97119.19;;;20.50;49.57
22181;BME280;11256;50.830;12.834;2023-09-18T04:02:42;97119.19;;;20.50;49.15
22181;BME280;11256;50.830;12.834;2023-09-18T04:07:42;97112.53;;;20.51;49.74
22181;BME280;11256;50.830;12.834;2023-09-18T04:12:46;97099.78;;;20.43;49.28
22181;BME280;11256;50.830;12.834;2023-09-18T04:17:47;97085.38;;;20.34;49.94
22181;BME280;11256;50.830;12.834;2023-09-18T04:22:48;97090.91;;;20.34;49.79
22181;BME280;11256;50.830;12.834;2023-09-18T04:28:08;97083.59;;;20.26;49.72
22181;BME280;11256;50.830;12.834;2023-09-18T04:33:08;97055.94;;;20.19;49.91
22181;BME280;11256;50.830;12.834;2023-09-18T04:38:09;97057.44;;;20.16;49.95
22181;BME280;11256;50.830;12.834;2023-09-18T04:43:15;97039.97;;;20.09;50.08
22181;BME280;11256;50.830;12.834;2023-09-18T04:48:16;97043.16;;;20.11;50.37
22181;BME280;11256;50.830;12.834;2023-09-18T04:53:16;97040.66;;;20.06;50.05
22181;BME280;11256;50.830;12.834;2023-09-18T04:58:17;97039.06;;;20.05;50.42
22181;BME280;11256;50.830;12.834;2023-09-18T05:03:17;97022.28;;;19.94;50.94
22181;BME280;11256;50.830;12.834;2023-09-18T05:08:18;97031.69;;;19.93;49.90
22181;BME280;11256;50.830;12.834;2023-09-18T05:13:19;97019.03;;;19.89;49.93
22181;BME280;11256;50.830;12.834;2023-09-18T05:18:20;97013.44;;;19.85;50.27
22181;BME280;11256;50.830;12.834;2023-09-18T05:23:20;97018.13;;;19.85;49.96
22181;BME280;11256;50.830;12.834;2023-09-18T05:28:20;97004.91;;;19.75;49.44
22181;BME280;11256;50.830;12.834;2023-09-18T05:33:21;97011.03;;;19.84;50.46
22181;BME280;11256;50.830;12.834;2023-09-18T05:38:21;97009.63;;;19.90;50.69
22181;BME280;11256;50.830;12.834;2023-09-18T05:43:21;97004.53;;;19.92;50.80
22181;BME280;11256;50.830;12.834;2023-09-18T05:48:22;96999.50;;;19.94;50.71
22181;BME280;11256;50.830;12.834;2023-09-18T05:53:23;96994.50;;;19.99;51.05
22181;BME280;11256;50.830;12.834;2023-09-18T05:58:23;96989.63;;;19.93;50.17
22181;BME280;11256;50.830;12.834;2023-09-18T06:03:26;96969.59;;;19.92;51.43
22181;BME280;11256;50.830;12.834;2023-09-18T06:08:27;96964.59;;;19.98;51.28
22181;BME280;11256;50.830;12.834;2023-09-18T06:13:28;96947.66;;;19.96;51.19
22181;BME280;11256;50.830;12.834;2023-09-18T06:18:29;96947.81;;;20.03;51.05
22181;BME280;11256;50.830;12.834;2023-09-18T06:23:29;96943.38;;;20.14;51.31
22181;BME280;11256;50.830;12.834;2023-09-18T06:28:29;96935.72;;;20.23;52.07
22181;BME280;11256;50.830;12.834;2023-09-18T06:33:30;96935.81;;;20.45;51.72
22181;BME280;11256;50.830;12.834;2023-09-18T06:38:30;96927.69;;;20.90;53.37
22181;BME280;11256;50.830;12.834;2023-09-18T06:43:31;96916.91;;;21.72;55.22
22181;BME280;11256;50.830;12.834;2023-09-18T06:48:32;96911.00;;;22.55;54.71
22181;BME280;11256;50.830;12.834;2023-09-18T06:53:32;96908.28;;;23.31;54.25
22181;BME280;11256;50.830;12.834;2023-09-18T06:58:33;96907.00;;;24.23;54.57
22181;BME280;11256;50.830;12.834;2023-09-18T07:03:33;96906.66;;;25.41;51.36
22181;BME280;11256;50.830;12.834;2023-09-18T07:08:35;96897.03;;;26.30;48.84
22181;BME280;11256;50.830;12.834;2023-09-18T07:13:36;96893.56;;;27.05;49.64
22181;BME280;11256;50.830;12.834;2023-09-18T07:18:36;96902.31;;;28.09;47.24
22181;BME280;11256;50.830;12.834;2023-09-18T07:23:37;96900.13;;;28.97;46.56
22181;BME280;11256;50.830;12.834;2023-09-18T07:28:37;96889.88;;;29.44;43.49
22181;BME280;11256;50.830;12.834;2023-09-18T07:33:38;96885.06;;;30.40;44.86
22181;BME280;11256;50.830;12.834;2023-09-18T07:38:39;96887.00;;;30.82;43.77
22181;BME280;11256;50.830;12.834;2023-09-18T07:43:40;96895.41;;;31.37;42.33
22181;BME280;11256;50.830;12.834;2023-09-18T07:48:41;96905.94;;;31.13;39.98
22181;BME280;11256;50.830;12.834;2023-09-18T07:53:42;96887.28;;;30.48;40.97
22181;BME280;11256;50.830;12.834;2023-09-18T07:58:43;96906.47;;;29.81;42.06
22181;BME280;11256;50.830;12.834;2023-09-18T08:03:43;96921.31;;;29.25;42.73
22181;BME280;11256;50.830;12.834;2023-09-18T08:08:43;96936.41;;;29.27;43.62
22181;BME280;11256;50.830;12.834;2023-09-18T08:13:44;96936.41;;;30.30;44.42
22181;BME280;11256;50.830;12.834;2023-09-18T08:18:44;96930.69;;;31.15;42.78
22181;BME280;11256;50.830;12.834;2023-09-18T08:23:44;96930.53;;;31.93;41.10
22181;BME280;11256;50.830;12.834;2023-09-18T08:28:45;96918.72;;;32.46;39.42
22181;BME280;11256;50.830;12.834;2023-09-18T08:33:45;96940.09;;;32.56;38.73
22181;BME280;11256;50.830;12.834;2023-09-18T08:38:46;96938.94;;;32.41;38.56
22181;BME280;11256;50.830;12.834;2023-09-18T08:43:48;96931.38;;;32.22;38.20
22181;BME280;11256;50.830;12.834;2023-09-18T08:48:50;96928.78;;;31.99;37.68
22181;BME280;11256;50.830;12.834;2023-09-18T08:53:51;96931.19;;;31.97;37.32
22181;BME280;11256;50.830;12.834;2023-09-18T08:58:52;96928.38;;;32.13;37.99
22181;BME280;11256;50.830;12.834;2023-09-18T09:03:53;96918.91;;;32.39;37.96
22181;BME280;11256;50.830;12.834;2023-09-18T09:08:53;96912.41;;;32.99;38.28
22181;BME280;11256;50.830;12.834;2023-09-18T09:14:13;96921.94;;;33.55;36.03
22181;BME280;11256;50.830;12.834;2023-09-18T09:19:32;96917.88;;;34.18;36.58
22181;BME280;11256;50.830;12.834;2023-09-18T09:24:40;96908.97;;;34.20;35.90
22181;BME280;11256;50.830;12.834;2023-09-18T09:29:41;96923.25;;;34.38;35.04
22181;BME280;11256;50.830;12.834;2023-09-18T09:34:41;96917.34;;;34.11;34.66
22181;BME280;11256;50.830;12.834;2023-09-18T09:39:50;96928.06;;;33.91;35.67
22181;BME280;11256;50.830;12.834;2023-09-18T09:45:02;96917.00;;;33.59;35.64
22181;BME280;11256;50.830;12.834;2023-09-18T09:50:11;96898.91;;;32.94;35.98
22181;BME280;11256;50.830;12.834;2023-09-18T09:55:26;96914.09;;;32.68;35.89
22181;BME280;11256;50.830;12.834;2023-09-18T10:00:33;96915.06;;;32.33;36.71
22181;BME280;11256;50.830;12.834;2023-09-18T10:05:43;96914.38;;;31.97;37.07
22181;BME280;11256;50.830;12.834;2023-09-18T10:10:49;96909.31;;;31.76;36.98
22181;BME280;11256;50.830;12.834;2023-09-18T10:15:51;96902.81;;;31.79;37.50
22181;BME280;11256;50.830;12.834;2023-09-18T10:20:57;96911.81;;;31.70;36.74
22181;BME280;11256;50.830;12.834;2023-09-18T10:26:03;96916.09;;;31.59;37.00
22181;BME280;11256;50.830;12.834;2023-09-18T10:31:07;96907.16;;;31.64;37.12
22181;BME280;11256;50.830;12.834;2023-09-18T10:36:09;96892.97;;;31.55;37.13
22181;BME280;11256;50.830;12.834;2023-09-18T10:41:11;96899.97;;;31.63;37.11
22181;BME280;11256;50.830;12.834;2023-09-18T10:46:12;96904.16;;;31.74;37.13
22181;BME280;11256;50.830;12.834;2023-09-18T10:51:13;96905.09;;;31.84;37.33
22181;BME280;11256;50.830;12.834;2023-09-18T10:56:19;96897.56;;;31.97;37.64
22181;BME280;11256;50.830;12.834;2023-09-18T11:01:20;96901.75;;;32.21;37.32
22181;BME280;11256;50.830;12.834;2023-09-18T11:06:20;96905.78;;;32.20;37.56
22181;BME280;11256;50.830;12.834;2023-09-18T11:11:27;96895.34;;;32.20;37.21
22181;BME280;11256;50.830;12.834;2023-09-18T11:21:32;96899.63;;;32.41;36.53
22181;BME280;11256;50.830;12.834;2023-09-18T11:26:34;96898.34;;;32.58;36.07
22181;BME280;11256;50.830;12.834;2023-09-18T11:31:43;96911.91;;;32.47;36.43
22181;BME280;11256;50.830;12.834;2023-09-18T11:36:43;96908.38;;;32.43;36.52
22181;BME280;11256;50.830;12.834;2023-09-18T11:41:44;96916.28;;;32.48;35.84
22181;BME280;11256;50.830;12.834;2023-09-18T11:46:46;96913.31;;;32.39;36.17
22181;BME280;11256;50.830;12.834;2023-09-18T11:51:50;96919.44;;;32.34;35.77
22181;BME280;11256;50.830;12.834;2023-09-18T11:56:51;96912.06;;;32.24;36.22
22181;BME280;11256;50.830;12.834;2023-09-18T12:01:54;96929.38;;;32.22;36.36
22181;BME280;11256;50.830;12.834;2023-09-18T12:07:04;96910.88;;;32.09;36.34
22181;BME280;11256;50.830;12.834;2023-09-18T12:12:05;96918.94;;;32.07;36.70
22181;BME280;11256;50.830;12.834;2023-09-18T12:17:06;96930.78;;;31.98;36.70
22181;BME280;11256;50.830;12.834;2023-09-18T12:22:08;96929.91;;;31.85;36.90
22181;BME280;11256;50.830;12.834;2023-09-18T12:27:08;96938.22;;;31.73;37.29
22181;BME280;11256;50.830;12.834;2023-09-18T12:32:12;96932.13;;;31.58;37.34
22181;BME280;11256;50.830;12.834;2023-09-18T12:37:13;96945.88;;;31.53;37.98
22181;BME280;11256;50.830;12.834;2023-09-18T12:42:14;96936.91;;;31.42;38.00
22181;BME280;11256;50.830;12.834;2023-09-18T12:47:15;96926.03;;;31.28;37.86
22181;BME280;11256;50.830;12.834;2023-09-18T12:52:22;96944.94;;;31.24;38.42
22181;BME280;11256;50.830;12.834;2023-09-18T12:57:22;96937.91;;;31.16;38.36
22181;BME280;11256;50.830;12.834;2023-09-18T13:02:22;96933.44;;;30.99;38.43
22181;BME280;11256;50.830;12.834;2023-09-18T13:07:24;96948.66;;;30.98;38.77
22181;BME280;11256;50.830;12.834;2023-09-18T13:12:24;96960.59;;;30.82;39.28
22181;BME280;11256;50.830;12.834;2023-09-18T13:17:25;96976.38;;;30.73;39.46
22181;BME280;11256;50.830;12.834;2023-09-18T13:22:26;96976.53;;;30.62;39.32
22181;BME280;11256;50.830;12.834;2023-09-18T13:27:26;96985.56;;;30.50;39.25
22181;BME280;11256;50.830;12.834;2023-09-18T13:32:26;96984.47;;;30.44;39.25
22181;BME280;11256;50.830;12.834;2023-09-18T13:37:27;97002.66;;;30.33;39.78
22181;BME280;11256;50.830;12.834;2023-09-18T13:42:29;97012.56;;;30.14;39.96
22181;BME280;11256;50.830;12.834;2023-09-18T13:47:30;97020.00;;;29.98;39.57
22181;BME280;11256;50.830;12.834;2023-09-18T13:52:32;97017.81;;;29.86;40.37
22181;BME280;11256;50.830;12.834;2023-09-18T13:57:34;97032.56;;;29.60;41.09
22181;BME280;11256;50.830;12.834;2023-09-18T14:02:34;97039.03;;;29.50;41.21
22181;BME280;11256;50.830;12.834;2023-09-18T14:07:36;97032.56;;;29.26;41.58
22181;BME280;11256;50.830;12.834;2023-09-18T14:12:39;97034.84;;;29.05;41.45
22181;BME280;11256;50.830;12.834;2023-09-18T14:17:39;97026.22;;;28.89;42.21
22181;BME280;11256;50.830;12.834;2023-09-18T14:22:40;97015.59;;;28.77;42.47
22181;BME280;11256;50.830;12.834;2023-09-18T14:27:41;97025.31;;;28.62;42.50
22181;BME280;11256;50.830;12.834;2023-09-18T14:32:42;97026.19;;;28.52;42.58
22181;BME280;11256;50.830;12.834;2023-09-18T14:37:42;97022.75;;;28.34;43.96
22181;BME280;11256;50.830;12.834;2023-09-18T14:42:42;97025.25;;;28.21;44.79
22181;BME280;11256;50.830;12.834;2023-09-18T14:47:43;97016.63;;;28.05;44.76
22181;BME280;11256;50.830;12.834;2023-09-18T14:52:45;97023.53;;;27.87;46.05
22181;BME280;11256;50.830;12.834;2023-09-18T14:57:45;97018.84;;;27.70;46.53
22181;BME280;11256;50.830;12.834;2023-09-18T15:02:46;97034.47;;;27.57;46.26
22181;BME280;11256;50.830;12.834;2023-09-18T15:07:46;97022.59;;;27.46;46.01
22181;BME280;11256;50.830;12.834;2023-09-18T15:12:46;97031.00;;;27.32;46.25
22181;BME280;11256;50.830;12.834;2023-09-18T15:17:47;97037.44;;;27.18;46.95
22181;BME280;11256;50.830;12.834;2023-09-18T15:22:47;97018.78;;;27.01;47.49
22181;BME280;11256;50.830;12.834;2023-09-18T15:27:48;97019.63;;;26.91;48.45
22181;BME280;11256;50.830;12.834;2023-09-18T15:32:51;97028.41;;;26.79;47.99
22181;BME280;11256;50.830;12.834;2023-09-18T15:37:53;97026.84;;;26.64;49.09
22181;BME280;11256;50.830;12.834;2023-09-18T15:42:53;97018.09;;;26.48;48.88
22181;BME280;11256;50.830;12.834;2023-09-18T15:47:54;96998.69;;;26.31;48.64
22181;BME280;11256;50.830;12.834;2023-09-18T15:52:55;97011.78;;;26.27;49.17
22181;BME280;11256;50.830;12.834;2023-09-18T15:57:55;97017.34;;;26.09;50.38
22181;BME280;11256;50.830;12.834;2023-09-18T16:02:56;97023.69;;;26.03;49.56
22181;BME280;11256;50.830;12.834;2023-09-18T16:07:56;97031.19;;;25.88;50.58
22181;BME280;11256;50.830;12.834;2023-09-18T16:12:59;97021.25;;;25.73;50.83
22181;BME280;11256;50.830;12.834;2023-09-18T16:18:00;97018.88;;;25.65;51.50
22181;BME280;11256;50.830;12.834;2023-09-18T16:23:00;96997.44;;;25.48;52.12
22181;BME280;11256;50.830;12.834;2023-09-18T16:28:01;97010.09;;;25.42;52.03
22181;BME280;11256;50.830;12.834;2023-09-18T16:33:04;97010.09;;;25.35;52.75
22181;BME280;11256;50.830;12.834;2023-09-18T16:38:05;97008.44;;;25.20;52.83
22181;BME280;11256;50.830;12.834;2023-09-18T16:43:05;97001.28;;;25.15;53.24
22181;BME280;11256;50.830;12.834;2023-09-18T16:48:07;96988.56;;;25.04;52.72
22181;BME280;11256;50.830;12.834;2023-09-18T16:53:07;96977.44;;;24.86;51.80
22181;BME280;11256;50.830;12.834;2023-09-18T16:58:07;96987.69;;;24.82;51.86
22181;BME280;11256;50.830;12.834;2023-09-18T17:03:08;96977.34;;;24.72;52.08
22181;BME280;11256;50.830;12.834;2023-09-18T17:08:08;96950.31;;;24.52;51.98
22181;BME280;11256;50.830;12.834;2023-09-18T17:13:09;96969.28;;;24.53;51.99
22181;BME280;11256;50.830;12.834;2023-09-18T17:18:12;96973.22;;;24.45;51.96
22181;BME280;11256;50.830;12.834;2023-09-18T17:23:14;96978.72;;;24.38;52.14
22181;BME280;11256;50.830;12.834;2023-09-18T17:28:15;96972.34;;;24.31;52.42
22181;BME280;11256;50.830;12.834;2023-09-18T17:33:16;96953.66;;;24.14;52.01
22181;BME280;11256;50.830;12.834;2023-09-18T17:38:17;96957.97;;;24.08;52.21
22181;BME280;11256;50.830;12.834;2023-09-18T17:43:18;96962.66;;;24.00;52.72
22181;BME280;11256;50.830;12.834;2023-09-18T17:48:18;96969.69;;;23.91;52.85
22181;BME280;11256;50.830;12.834;2023-09-18T17:53:19;96977.59;;;23.89;52.88
22181;BME280;11256;50.830;12.834;2023-09-18T17:58:20;96971.94;;;23.78;53.64
22181;BME280;11256;50.830;12.834;2023-09-18T18:03:20;96958.44;;;23.70;54.26
22181;BME280;11256;50.830;12.834;2023-09-18T18:08:21;96941.31;;;23.57;53.99
22181;BME280;11256;50.830;12.834;2023-09-18T18:13:22;96926.56;;;23.43;54.35
22181;BME280;11256;50.830;12.834;2023-09-18T18:18:23;96930.44;;;23.35;54.14
22181;BME280;11256;50.830;12.834;2023-09-18T18:23:23;96936.31;;;23.30;54.52
22181;BME280;11256;50.830;12.834;2023-09-18T18:28:24;96959.56;;;23.22;54.46
22181;BME280;11256;50.830;12.834;2023-09-18T18:33:24;96955.84;;;23.11;54.19
22181;BME280;11256;50.830;12.834;2023-09-18T18:38:24;96957.38;;;23.05;55.03
22181;BME280;11256;50.830;12.834;2023-09-18T18:43:26;96961.25;;;23.00;55.11
22181;BME280;11256;50.830;12.834;2023-09-18T18:48:27;96955.28;;;22.95;55.32
22181;BME280;11256;50.830;12.834;2023-09-18T18:53:28;96959.91;;;22.84;55.60
22181;BME280;11256;50.830;12.834;2023-09-18T18:58:30;96975.22;;;22.78;54.97
22181;BME280;11256;50.830;12.834;2023-09-18T19:03:33;96962.59;;;22.77;55.63
22181;BME280;11256;50.830;12.834;2023-09-18T19:08:43;96963.25;;;22.67;55.91
22181;BME280;11256;50.830;12.834;2023-09-18T19:13:45;96962.00;;;22.61;55.35
22181;BME280;11256;50.830;12.834;2023-09-18T19:18:47;96958.78;;;22.59;55.43
22181;BME280;11256;50.830;12.834;2023-09-18T19:23:48;96961.47;;;22.52;55.64
22181;BME280;11256;50.830;12.834;2023-09-18T19:28:49;96968.91;;;22.48;55.80
22181;BME280;11256;50.830;12.834;2023-09-18T19:33:49;96967.19;;;22.40;55.20
22181;BME280;11256;50.830;12.834;2023-09-18T19:38:49;96964.75;;;22.35;55.96
22181;BME280;11256;50.830;12.834;2023-09-18T19:43:51;96928.63;;;22.17;55.52
22181;BME280;11256;50.830;12.834;2023-09-18T19:48:51;96939.34;;;22.22;55.83
22181;BME280;11256;50.830;12.834;2023-09-18T19:53:51;96921.03;;;22.11;56.07
22181;BME280;11256;50.830;12.834;2023-09-18T19:58:53;96917.91;;;22.12;56.73
22181;BME280;11256;50.830;12.834;2023-09-18T20:03:53;96928.00;;;22.01;56.50
22181;BME280;11256;50.830;12.834;2023-09-18T20:08:54;96941.84;;;22.05;56.44
22181;BME280;11256;50.830;12.834;2023-09-18T20:13:54;96939.41;;;22.00;56.81
22181;BME280;11256;50.830;12.834;2023-09-18T20:18:55;96922.34;;;21.91;56.77
22181;BME280;11256;50.830;12.834;2023-09-18T20:23:55;96922.66;;;21.86;56.93
22181;BME280;11256;50.830;12.834;2023-09-18T20:28:56;96911.94;;;21.81;56.65
22181;BME280;11256;50.830;12.834;2023-09-18T20:34:00;96922.56;;;21.79;56.89
22181;BME280;11256;50.830;12.834;2023-09-18T20:39:00;96922.00;;;21.70;56.81
22181;BME280;11256;50.830;12.834;2023-09-18T20:44:00;96923.50;;;21.67;56.72
22181;BME280;11256;50.830;12.834;2023-09-18T20:49:01;96930.56;;;21.65;57.12
22181;BME280;11256;50.830;12.834;2023-09-18T20:54:01;96913.06;;;21.54;57.09
22181;BME280;11256;50.830;12.834;2023-09-18T20:59:03;96909.88;;;21.52;57.40
22181;BME280;11256;50.830;12.834;2023-09-18T21:04:04;96913.56;;;21.37;57.36
22181;BME280;11256;50.830;12.834;2023-09-18T21:09:04;96920.59;;;21.34;56.83
22181;BME280;11256;50.830;12.834;2023-09-18T21:14:07;96923.25;;;21.27;56.86
22181;BME280;11256;50.830;12.834;2023-09-18T21:19:07;96915.66;;;21.21;57.37
22181;BME280;11256;50.830;12.834;2023-09-18T21:24:10;96909.50;;;21.08;57.27
22181;BME280;11256;50.830;12.834;2023-09-18T21:29:11;96915.44;;;21.10;57.40
22181;BME280;11256;50.830;12.834;2023-09-18T21:34:11;96921.59;;;21.00;57.10
22181;BME280;11256;50.830;12.834;2023-09-18T21:39:12;96933.69;;;20.96;57.43
22181;BME280;11256;50.830;12.834;2023-09-18T21:44:12;96923.06;;;20.94;57.55
22181;BME280;11256;50.830;12.834;2023-09-18T21:49:14;96930.81;;;20.89;57.54
22181;BME280;11256;50.830;12.834;2023-09-18T21:54:15;96917.28;;;20.84;57.88
22181;BME280;11256;50.830;12.834;2023-09-18T21:59:15;96918.75;;;20.78;58.17
22181;BME280;11256;50.830;12.834;2023-09-18T22:04:15;96923.41;;;20.74;58.49
22181;BME280;11256;50.830;12.834;2023-09-18T22:09:17;96938.34;;;20.73;58.66
22181;BME280;11256;50.830;12.834;2023-09-18T22:14:19;96926.84;;;20.67;58.79
22181;BME280;11256;50.830;12.834;2023-09-18T22:19:22;96931.75;;;20.58;59.57
22181;BME280;11256;50.830;12.834;2023-09-18T22:24:23;96931.63;;;20.51;60.00
22181;BME280;11256;50.830;12.834;2023-09-18T22:29:25;96924.44;;;20.47;59.99
22181;BME280;11256;50.830;12.834;2023-09-18T22:34:25;96924.50;;;20.50;60.57
22181;BME280;11256;50.830;12.834;2023-09-18T22:56:16;96891.84;;;19.95;62.64
22181;BME280;11256;50.830;12.834;2023-09-18T23:01:17;96925.44;;;20.20;61.68
22181;BME280;11256;50.830;12.834;2023-09-18T23:06:20;96901.50;;;20.05;62.37
22181;BME280;11256;50.830;12.834;2023-09-18T23:11:38;96921.38;;;20.14;62.39
22181;BME280;11256;50.830;12.834;2023-09-18T23:17:08;96896.56;;;19.95;62.54
22181;BME280;11256;50.830;12.834;2023-09-18T23:22:21;96911.81;;;20.08;62.80
22181;BME280;11256;50.830;12.834;2023-09-18T23:27:41;96871.06;;;19.98;62.59
22181;BME280;11256;50.830;12.834;2023-09-18T23:32:42;96900.81;;;20.08;62.44
22181;BME280;11256;50.830;12.834;2023-09-18T23:37:55;96891.22;;;20.02;62.92
22181;BME280;11256;50.830;12.834;2023-09-18T23:43:06;96896.78;;;20.05;62.82
22181;BME280;11256;50.830;12.834;2023-09-18T23:48:16;96869.06;;;19.95;61.85
22181;BME280;11256;50.830;12.834;2023-09-18T23:53:19;96887.16;;;19.96;62.36
22181;BME280;11256;50.830;12.834;2023-09-18T23:58:21;96876.50;;;19.94;62.24
